Time;durP1;ratioP1;P1;durP2;ratioP2;P2;SDS_P1;SDS_P2;PMS_P1;PMS_P2;Temp;Humidity;BMP_temperature;BMP_pressure;BME280_temperature;BME280_humidity;BME280_pressure;Samples;Min_cycle;Max_cycle;Signal;HPM_P1;HPM_P2
2023/05/27 00:02:13;;;;;;;15.68;5.82;;;12.90;99.90;;;;;;5103151;28;20561;-77
2023/05/27 00:04:40;;;;;;;12.85;5.00;;;13.00;99.90;;;;;;5097605;28;20209;-77
2023/05/27 00:07:08;;;;;;;10.60;4.63;;;13.20;99.90;;;;;;5098800;28;20209;-77
2023/05/27 00:09:35;;;;;;;11.90;5.03;;;13.10;99.90;;;;;;5094315;28;20213;-77
2023/05/27 00:12:03;;;;;;;8.82;4.97;;;13.00;99.90;;;;;;5104935;28;20204;-77
2023/05/27 00:14:30;;;;;;;12.77;5.28;;;12.90;99.90;;;;;;5111973;28;20210;-77
2023/05/27 00:16:59;;;;;;;11.88;5.00;;;12.90;99.90;;;;;;5107163;28;20203;-77
2023/05/27 00:19:29;;;;;;;13.45;5.22;;;12.70;99.90;;;;;;5112398;28;20216;-77
2023/05/27 00:21:56;;;;;;;13.13;4.72;;;12.40;99.90;;;;;;5111067;28;20196;-77
2023/05/27 00:24:24;;;;;;;12.98;5.10;;;12.40;99.90;;;;;;5110309;28;20208;-77
2023/05/27 00:26:51;;;;;;;9.98;4.32;;;12.50;99.90;;;;;;5106396;28;20196;-77
2023/05/27 00:29:19;;;;;;;12.63;4.47;;;12.50;99.90;;;;;;5105702;28;20591;-77
2023/05/27 00:32:05;;;;;;;10.90;4.43;;;12.70;99.90;;;;;;5106190;28;20200;-77
2023/05/27 00:34:34;;;;;;;15.43;4.65;;;12.30;99.90;;;;;;5101455;28;20193;-77
2023/05/27 00:37:02;;;;;;;12.32;5.55;;;12.30;99.90;;;;;;5103748;28;20215;-77
2023/05/27 00:39:29;;;;;;;9.52;4.80;;;12.40;99.90;;;;;;5096432;28;20221;-77
2023/05/27 00:41:58;;;;;;;12.20;4.90;;;12.40;99.90;;;;;;5101504;28;20192;-77
2023/05/27 00:44:25;;;;;;;10.18;4.75;;;12.30;99.90;;;;;;5106768;28;20208;-77
2023/05/27 00:46:53;;;;;;;12.73;4.47;;;12.20;99.90;;;;;;5100935;28;20200;-77
2023/05/27 00:49:20;;;;;;;10.32;4.63;;;12.10;99.90;;;;;;5105048;28;20224;-77
2023/05/27 00:51:49;;;;;;;10.73;4.55;;;12.30;99.90;;;;;;5100243;28;20192;-77
2023/05/27 00:54:16;;;;;;;10.52;4.53;;;12.20;99.90;;;;;;5103924;28;20204;-77
2023/05/27 00:56:45;;;;;;;12.05;5.18;;;12.20;99.90;;;;;;5098529;28;20559;-77
2023/05/27 00:59:12;;;;;;;12.80;4.28;;;12.20;99.90;;;;;;5105018;28;20220;-76
2023/05/27 01:01:43;;;;;;;9.50;5.43;;;12.20;99.90;;;;;;5106383;28;20220;-76
2023/05/27 01:04:12;;;;;;;11.88;4.88;;;12.00;99.90;;;;;;5107027;28;20204;-76
2023/05/27 01:06:49;;;;;;;13.68;4.47;;;12.10;99.90;;;;;;5108825;28;20677;-76
2023/05/27 01:09:25;;;;;;;11.73;4.88;;;12.20;99.90;;;;;;5098479;28;20227;-77
2023/05/27 01:12:03;;;;;;;10.60;4.82;;;12.10;99.90;;;;;;5099648;28;20192;-77
2023/05/27 01:14:32;;;;;;;9.75;4.78;;;12.10;99.90;;;;;;5099740;28;20200;-77
2023/05/27 01:17:02;;;;;;;12.48;4.18;;;12.20;99.90;;;;;;5096266;28;20211;-77
2023/05/27 01:19:34;;;;;;;7.35;3.85;;;12.10;99.90;;;;;;5104463;28;20223;-77
2023/05/27 01:22:02;;;;;;;10.13;4.55;;;12.00;99.90;;;;;;5100443;28;20224;-77
2023/05/27 01:24:33;;;;;;;13.05;4.47;;;12.10;99.90;;;;;;5101744;28;20197;-77
2023/05/27 01:27:02;;;;;;;13.20;4.88;;;12.00;99.90;;;;;;5101140;28;20681;-77
2023/05/27 01:29:30;;;;;;;9.13;3.83;;;11.90;99.90;;;;;;5102199;28;20743;-77
2023/05/27 01:32:04;;;;;;;10.63;5.60;;;12.20;99.90;;;;;;5101837;28;20294;-77
2023/05/27 01:34:37;;;;;;;10.93;4.80;;;12.20;99.90;;;;;;5107398;28;20192;-77
2023/05/27 01:37:07;;;;;;;11.45;4.32;;;12.10;99.90;;;;;;5106297;28;20204;-77
2023/05/27 01:39:38;;;;;;;12.40;4.57;;;12.20;99.90;;;;;;5105069;28;20216;-77
2023/05/27 01:42:06;;;;;;;11.75;4.47;;;12.00;99.90;;;;;;5102408;28;20209;-77
2023/05/27 01:44:34;;;;;;;11.63;4.40;;;12.00;99.90;;;;;;5106812;28;20654;-77
2023/05/27 01:47:03;;;;;;;11.73;4.88;;;12.00;99.90;;;;;;5096878;28;20197;-77
2023/05/27 01:49:31;;;;;;;12.13;3.85;;;12.10;99.90;;;;;;5107340;28;20220;-77
2023/05/27 01:51:58;;;;;;;12.70;4.60;;;12.10;99.90;;;;;;5105450;28;20188;-77
2023/05/27 01:54:26;;;;;;;10.85;4.80;;;12.30;99.90;;;;;;5103625;28;20200;-77
2023/05/27 01:56:55;;;;;;;10.27;4.93;;;12.00;99.90;;;;;;5107939;28;20669;-77
2023/05/27 01:59:22;;;;;;;10.18;4.40;;;12.00;99.90;;;;;;5100160;28;20227;-77
2023/05/27 02:01:50;;;;;;;10.15;5.07;;;11.80;99.90;;;;;;5107974;28;20227;-77
2023/05/27 02:04:17;;;;;;;8.90;4.05;;;11.80;99.90;;;;;;5101094;28;20223;-77
2023/05/27 02:06:48;;;;;;;12.80;4.75;;;11.60;99.90;;;;;;5097918;28;20201;-77
2023/05/27 02:09:20;;;;;;;11.70;5.13;;;11.70;99.90;;;;;;5093364;28;20578;-77
2023/05/27 02:11:48;;;;;;;9.75;4.82;;;11.80;99.90;;;;;;5101738;28;20197;-77
2023/05/27 02:14:16;;;;;;;11.00;5.25;;;11.70;99.90;;;;;;5099373;28;20205;-77
2023/05/27 02:16:44;;;;;;;7.45;5.20;;;11.50;99.90;;;;;;5100124;28;20204;-77
2023/05/27 02:19:12;;;;;;;10.68;4.97;;;11.60;99.90;;;;;;5111230;28;20670;-77
2023/05/27 02:21:39;;;;;;;15.18;5.78;;;11.50;99.90;;;;;;5104097;28;20581;-77
2023/05/27 02:24:07;;;;;;;11.75;5.07;;;11.50;99.90;;;;;;5109049;28;20204;-77
2023/05/27 02:26:35;;;;;;;10.18;4.43;;;11.50;99.90;;;;;;5100367;28;20197;-77
2023/05/27 02:29:03;;;;;;;10.77;4.72;;;11.30;99.90;;;;;;5103384;28;20227;-77
2023/05/27 02:31:32;;;;;;;14.77;5.03;;;11.30;99.90;;;;;;5102409;28;20563;-77
2023/05/27 02:33:59;;;;;;;13.43;5.75;;;11.40;99.90;;;;;;5103235;28;20200;-77
2023/05/27 02:36:27;;;;;;;10.63;4.70;;;11.30;99.90;;;;;;5101692;28;20553;-77
2023/05/27 02:38:56;;;;;;;11.83;5.67;;;11.20;99.90;;;;;;5095919;28;20222;-77
2023/05/27 02:41:23;;;;;;;16.08;5.20;;;11.10;99.90;;;;;;5107848;28;20223;-77
2023/05/27 02:43:51;;;;;;;14.93;5.07;;;11.10;99.90;;;;;;5109199;28;20200;-77
2023/05/27 02:46:19;;;;;;;10.80;4.80;;;11.10;99.90;;;;;;5107611;28;20199;-77
2023/05/27 02:48:47;;;;;;;10.33;5.20;;;11.10;99.90;;;;;;5097691;28;20197;-77
2023/05/27 02:51:15;;;;;;;12.97;4.80;;;11.00;99.90;;;;;;5104957;28;20199;-77
2023/05/27 02:53:42;;;;;;;8.83;4.77;;;10.90;99.90;;;;;;5102609;28;20209;-77
2023/05/27 02:56:10;;;;;;;11.00;4.87;;;10.90;99.90;;;;;;5108849;28;20189;-77
2023/05/27 02:58:37;;;;;;;11.27;4.93;;;10.80;99.90;;;;;;5106399;28;20200;-77
2023/05/27 03:01:05;;;;;;;8.80;5.20;;;10.90;99.90;;;;;;5109676;28;20196;-77
2023/05/27 03:03:32;;;;;;;11.97;5.23;;;10.70;99.90;;;;;;5107147;28;20200;-77
2023/05/27 03:06:01;;;;;;;10.27;4.60;;;10.80;99.90;;;;;;5117266;27;20662;-77
2023/05/27 03:08:31;;;;;;;11.27;5.43;;;11.00;99.90;;;;;;5103820;28;20196;-77
2023/05/27 03:10:58;;;;;;;12.17;5.70;;;11.00;99.90;;;;;;5108263;28;20188;-77
2023/05/27 03:13:25;;;;;;;10.43;5.33;;;11.00;99.90;;;;;;5105886;28;20200;-77
2023/05/27 03:15:54;;;;;;;13.17;5.57;;;10.90;99.90;;;;;;5097960;28;20193;-77
2023/05/27 03:18:27;;;;;;;9.40;4.70;;;10.90;99.90;;;;;;5107319;28;20204;-77
2023/05/27 03:20:55;;;;;;;13.05;4.80;;;11.10;99.90;;;;;;5101422;28;20199;-77
2023/05/27 03:23:24;;;;;;;10.97;5.17;;;10.80;99.90;;;;;;5109696;28;20200;-77
2023/05/27 03:25:52;;;;;;;11.17;4.80;;;10.90;99.90;;;;;;5109047;28;20200;-77
2023/05/27 03:28:19;;;;;;;11.30;5.63;;;11.10;99.90;;;;;;5113226;28;20196;-77
2023/05/27 03:30:46;;;;;;;13.13;5.27;;;10.90;99.90;;;;;;5103862;28;20212;-77
2023/05/27 03:33:25;;;;;;;12.97;5.10;;;10.80;99.90;;;;;;5105695;27;20200;-77
2023/05/27 03:35:55;;;;;;;12.33;5.50;;;10.80;99.90;;;;;;5107051;28;20570;-77
2023/05/27 03:38:24;;;;;;;12.87;5.23;;;10.60;99.90;;;;;;5093336;28;20212;-77
2023/05/27 03:40:51;;;;;;;11.33;5.60;;;10.60;99.90;;;;;;5097594;28;20714;-77
2023/05/27 03:43:19;;;;;;;10.40;5.20;;;10.50;99.90;;;;;;5107422;28;20200;-77
2023/05/27 03:45:46;;;;;;;12.00;5.93;;;10.40;99.90;;;;;;5108156;28;20197;-77
2023/05/27 03:48:14;;;;;;;10.10;5.83;;;10.50;99.90;;;;;;5110271;28;20200;-77
2023/05/27 03:50:41;;;;;;;14.37;5.53;;;10.60;99.90;;;;;;5103900;27;20221;-77
2023/05/27 03:53:09;;;;;;;12.17;5.60;;;10.50;99.90;;;;;;5109592;28;20579;-77
2023/05/27 03:55:38;;;;;;;13.40;5.77;;;10.60;99.90;;;;;;5105668;28;20211;-77
2023/05/27 03:58:05;;;;;;;12.33;6.60;;;10.80;99.90;;;;;;5106335;28;20192;-77
2023/05/27 04:00:35;;;;;;;12.57;6.00;;;10.80;99.90;;;;;;5103124;28;20217;-76
2023/05/27 04:03:03;;;;;;;11.73;6.80;;;10.70;99.90;;;;;;5105516;28;20204;-78
2023/05/27 04:05:31;;;;;;;10.50;5.50;;;10.60;99.90;;;;;;5102519;28;20193;-79
2023/05/27 04:07:59;;;;;;;11.03;5.90;;;10.90;99.90;;;;;;5108482;28;20200;-79
2023/05/27 04:10:27;;;;;;;15.33;6.80;;;10.80;99.90;;;;;;5105203;28;20227;-78
2023/05/27 04:12:58;;;;;;;13.13;6.70;;;11.00;99.90;;;;;;5106740;28;20189;-78
2023/05/27 04:15:26;;;;;;;12.30;6.40;;;10.80;99.90;;;;;;5108297;28;20207;-78
2023/05/27 04:17:53;;;;;;;13.27;6.70;;;10.90;99.90;;;;;;5113328;28;20193;-78
2023/05/27 04:20:21;;;;;;;13.77;5.83;;;11.00;99.90;;;;;;5099713;28;20228;-79
2023/05/27 04:22:54;;;;;;;10.83;6.13;;;11.20;99.90;;;;;;5096506;28;20691;-78
2023/05/27 04:25:21;;;;;;;14.47;5.73;;;11.20;99.90;;;;;;5108230;28;20193;-78
2023/05/27 04:28:11;;;;;;;11.73;7.40;;;11.30;99.90;;;;;;5099800;28;20196;-78
2023/05/27 04:30:42;;;;;;;11.37;5.33;;;11.30;99.90;;;;;;5103571;28;20476;-79
2023/05/27 04:33:16;;;;;;;16.13;6.57;;;11.20;99.90;;;;;;5109192;28;20669;-78
2023/05/27 04:35:44;;;;;;;13.27;6.07;;;11.20;99.90;;;;;;5104537;28;20574;-78
2023/05/27 04:38:31;;;;;;;11.10;6.17;;;11.20;99.90;;;;;;5101477;28;20204;-79
2023/05/27 04:41:03;;;;;;;13.87;6.07;;;11.20;99.90;;;;;;5094874;28;20200;-78
2023/05/27 04:43:52;;;;;;;14.57;5.63;;;11.20;99.90;;;;;;5093697;28;20201;-79
2023/05/27 04:46:24;;;;;;;9.77;5.47;;;11.20;99.90;;;;;;5110972;28;20214;-79
2023/05/27 04:48:52;;;;;;;13.37;6.77;;;11.10;99.90;;;;;;5107529;28;20227;-78
2023/05/27 04:51:20;;;;;;;15.13;6.17;;;11.10;99.90;;;;;;5103050;28;20208;-78
2023/05/27 04:53:48;;;;;;;10.47;5.17;;;11.20;99.90;;;;;;5096049;28;20213;-78
2023/05/27 04:56:17;;;;;;;8.30;5.63;;;11.40;99.90;;;;;;5099770;28;20203;-78
2023/05/27 04:58:48;;;;;;;11.53;5.83;;;11.30;99.90;;;;;;5093519;28;20188;-80
2023/05/27 05:01:39;;;;;;;12.40;6.67;;;11.40;99.90;;;;;;5097779;28;20201;-78
2023/05/27 05:07:25;;;;;;;13.63;6.87;;;11.20;99.90;;;;;;5100496;28;20203;-77
2023/05/27 05:09:55;;;;;;;13.53;6.50;;;10.90;99.90;;;;;;5093853;28;20220;-78
2023/05/27 05:12:30;;;;;;;15.00;6.23;;;11.00;99.90;;;;;;5096694;28;20195;-77
2023/05/27 05:14:58;;;;;;;14.10;6.23;;;10.90;99.90;;;;;;5101472;28;20201;-78
2023/05/27 05:17:28;;;;;;;17.20;6.70;;;10.60;99.90;;;;;;5093570;28;20662;-79
2023/05/27 05:19:57;;;;;;;13.13;7.10;;;10.80;99.90;;;;;;5106485;28;20217;-79
2023/05/27 05:22:28;;;;;;;12.70;6.93;;;11.00;99.90;;;;;;5105947;28;20532;-79
2023/05/27 05:24:56;;;;;;;10.03;6.57;;;11.30;99.90;;;;;;5109839;28;20196;-78
2023/05/27 05:27:31;;;;;;;15.17;7.13;;;11.40;99.90;;;;;;5106753;28;20200;-79
2023/05/27 05:29:59;;;;;;;13.13;6.57;;;11.50;99.90;;;;;;5112958;27;20212;-78
2023/05/27 05:32:28;;;;;;;14.70;6.87;;;11.60;99.90;;;;;;5107100;27;20652;-78
2023/05/27 05:34:55;;;;;;;14.23;7.00;;;11.50;99.90;;;;;;5101507;28;20200;-78
2023/05/27 05:37:23;;;;;;;14.90;6.90;;;11.30;99.90;;;;;;5103581;28;20204;-78
2023/05/27 05:40:06;;;;;;;11.25;6.38;;;11.50;99.90;;;;;;5092064;28;20227;-78
2023/05/27 05:42:37;;;;;;;11.03;5.90;;;11.40;99.90;;;;;;5097072;28;20215;-78
2023/05/27 05:45:14;;;;;;;13.60;6.90;;;11.50;99.90;;;;;;5096885;28;20188;-78
2023/05/27 05:47:46;;;;;;;12.70;6.30;;;11.70;99.90;;;;;;5100313;28;20200;-78
2023/05/27 05:50:17;;;;;;;10.32;6.72;;;11.70;99.90;;;;;;5099863;28;20227;-79
2023/05/27 05:52:44;;;;;;;15.65;6.93;;;11.80;99.90;;;;;;5096171;28;20204;-78
2023/05/27 05:55:12;;;;;;;14.13;6.82;;;12.00;99.90;;;;;;5102991;28;20201;-78
2023/05/27 05:57:41;;;;;;;14.82;6.10;;;12.00;99.90;;;;;;5103163;28;20674;-78
2023/05/27 06:00:12;;;;;;;13.25;6.32;;;12.00;99.90;;;;;;5113418;27;20223;-79
2023/05/27 06:02:49;;;;;;;9.25;6.07;;;12.30;99.90;;;;;;5118182;27;20772;-79
2023/05/27 06:05:50;;;;;;;14.43;6.35;;;12.40;99.90;;;;;;5106751;28;20193;-79
2023/05/27 06:08:18;;;;;;;15.82;7.55;;;12.60;99.90;;;;;;5101495;28;20550;-79
2023/05/27 06:10:53;;;;;;;13.00;6.40;;;12.70;99.90;;;;;;5104028;28;20216;-79
2023/05/27 06:13:20;;;;;;;13.95;6.72;;;12.50;99.90;;;;;;5105916;28;20203;-79
2023/05/27 06:15:50;;;;;;;10.95;5.95;;;12.30;99.90;;;;;;5103093;28;20208;-79
2023/05/27 06:18:19;;;;;;;17.45;7.22;;;12.40;99.90;;;;;;5105378;28;20270;-77
2023/05/27 06:20:47;;;;;;;14.13;6.70;;;12.30;99.90;;;;;;5104076;28;20227;-77
2023/05/27 06:23:14;;;;;;;10.95;6.45;;;12.40;99.90;;;;;;5100265;28;20228;-80
2023/05/27 06:25:54;;;;;;;14.30;6.60;;;12.40;99.90;;;;;;5107316;28;20196;-79
2023/05/27 06:28:22;;;;;;;13.35;6.75;;;12.60;99.90;;;;;;5101773;28;20197;-78
2023/05/27 06:30:50;;;;;;;13.35;6.50;;;12.70;99.90;;;;;;5099587;28;20212;-78
2023/05/27 06:33:19;;;;;;;16.08;7.10;;;12.70;99.90;;;;;;5099373;28;20193;-77
2023/05/27 06:35:47;;;;;;;18.90;7.45;;;12.70;99.90;;;;;;5098818;28;20189;-79
2023/05/27 06:38:14;;;;;;;14.52;6.68;;;12.80;99.90;;;;;;5104709;28;20558;-78
2023/05/27 06:40:42;;;;;;;13.52;7.00;;;13.00;99.90;;;;;;5104499;28;20223;-78
2023/05/27 06:43:11;;;;;;;12.50;7.32;;;12.80;99.90;;;;;;5103837;28;20222;-78
2023/05/27 06:45:55;;;;;;;16.67;7.30;;;12.80;99.90;;;;;;5095257;28;20200;-78
2023/05/27 06:48:47;;;;;;;15.35;7.25;;;12.90;99.90;;;;;;5091821;28;20208;-79
2023/05/27 06:51:17;;;;;;;15.82;6.80;;;13.10;99.90;;;;;;5106345;27;20204;-78
2023/05/27 06:53:44;;;;;;;13.82;6.40;;;13.20;99.90;;;;;;5096604;28;20207;-79
2023/05/27 06:56:16;;;;;;;13.13;6.78;;;13.00;99.90;;;;;;5113788;28;20200;-79
2023/05/27 06:59:02;;;;;;;11.45;6.97;;;13.10;99.90;;;;;;5104252;28;20586;-78
2023/05/27 07:01:31;;;;;;;13.88;7.20;;;12.90;99.90;;;;;;5101924;28;20197;-79
2023/05/27 07:04:11;;;;;;;12.75;6.50;;;13.10;99.90;;;;;;5092011;28;20217;-79
2023/05/27 07:06:45;;;;;;;10.93;5.78;;;13.40;99.90;;;;;;5108745;28;20193;-79
2023/05/27 07:09:13;;;;;;;23.25;7.85;;;13.40;99.90;;;;;;5106534;28;20227;-81
2023/05/27 07:11:41;;;;;;;27.48;9.43;;;13.80;99.90;;;;;;5100271;28;20212;-81
2023/05/27 07:14:13;;;;;;;14.38;7.63;;;14.10;99.90;;;;;;5102885;28;20197;-81
2023/05/27 07:16:44;;;;;;;24.77;8.43;;;14.00;99.90;;;;;;5100216;28;20665;-81
2023/05/27 07:19:15;;;;;;;21.85;7.72;;;14.60;99.90;;;;;;5104356;28;20208;-82
2023/05/27 07:21:50;;;;;;;14.60;6.22;;;14.30;99.90;;;;;;5107768;28;20197;-84
2023/05/27 07:24:21;;;;;;;17.45;7.18;;;14.10;99.90;;;;;;5097040;28;20211;-81
2023/05/27 07:26:49;;;;;;;15.65;6.75;;;13.80;99.90;;;;;;5098059;28;20200;-78
2023/05/27 07:29:18;;;;;;;14.15;6.78;;;14.00;99.90;;;;;;5101464;28;20218;-78
2023/05/27 07:31:54;;;;;;;11.63;6.65;;;13.90;99.90;;;;;;5109147;28;20204;-80
2023/05/27 07:34:27;;;;;;;12.70;6.70;;;14.00;99.90;;;;;;5109210;28;20192;-80
2023/05/27 07:37:01;;;;;;;17.55;6.40;;;14.10;99.90;;;;;;5114266;28;20217;-79
2023/05/27 07:39:28;;;;;;;11.95;6.72;;;14.20;99.90;;;;;;5118634;28;20685;-79
2023/05/27 07:41:56;;;;;;;13.02;6.88;;;14.20;99.90;;;;;;5112018;28;20566;-79
2023/05/27 07:44:24;;;;;;;14.27;6.03;;;14.40;99.90;;;;;;5097441;28;20220;-77
2023/05/27 07:46:52;;;;;;;18.52;6.93;;;14.30;99.90;;;;;;5113139;28;20196;-77
2023/05/27 07:49:20;;;;;;;12.48;6.35;;;14.60;99.90;;;;;;5114451;28;20220;-78
2023/05/27 07:52:08;;;;;;;12.38;6.55;;;14.70;99.90;;;;;;5113830;28;20204;-77
2023/05/27 07:54:36;;;;;;;9.07;6.43;;;14.80;99.90;;;;;;5093696;28;20379;-77
2023/05/27 07:57:04;;;;;;;16.20;7.15;;;14.90;99.90;;;;;;5114198;28;20200;-77
2023/05/27 08:00:01;;;;;;;15.90;6.25;;;15.10;99.90;;;;;;5113502;28;20223;-77
2023/05/27 08:02:43;;;;;;;12.85;6.40;;;15.10;99.90;;;;;;5115327;28;20193;-77
2023/05/27 08:05:10;;;;;;;15.23;6.45;;;15.00;99.90;;;;;;5107930;28;20220;-77
2023/05/27 08:07:59;;;;;;;11.55;6.10;;;15.10;99.90;;;;;;5108366;28;20192;-77
2023/05/27 08:10:51;;;;;;;12.80;6.30;;;15.10;99.90;;;;;;5106696;28;20235;-77
2023/05/27 08:13:37;;;;;;;13.10;6.93;;;15.20;99.90;;;;;;5112478;28;20216;-77
2023/05/27 08:16:43;;;;;;;8.23;6.70;;;15.20;99.90;;;;;;5013066;28;20195;-77
2023/05/27 08:19:21;;;;;;;14.10;7.10;;;15.40;99.90;;;;;;5012147;28;20211;-77
2023/05/27 08:21:55;;;;;;;11.20;6.28;;;15.10;99.90;;;;;;5007701;28;20218;-77
2023/05/27 08:24:51;;;;;;;15.43;7.10;;;15.30;99.90;;;;;;5017246;28;20584;-77
2023/05/27 08:27:50;;;;;;;12.43;6.28;;;15.60;99.90;;;;;;5043456;28;20670;-77
2023/05/27 08:30:28;;;;;;;12.10;6.32;;;15.60;99.90;;;;;;5106599;28;20215;-77
2023/05/27 08:33:02;;;;;;;15.93;6.65;;;15.80;99.90;;;;;;5093228;28;20670;-77
2023/05/27 08:35:31;;;;;;;16.58;6.80;;;15.80;99.90;;;;;;5102900;28;20188;-77
2023/05/27 08:38:01;;;;;;;10.77;5.78;;;15.90;99.90;;;;;;5110979;28;20184;-77
2023/05/27 08:40:35;;;;;;;11.05;6.32;;;15.90;99.90;;;;;;5113368;27;20216;-77
2023/05/27 08:43:03;;;;;;;14.70;6.03;;;16.00;99.90;;;;;;5105667;28;20195;-77
2023/05/27 08:45:33;;;;;;;9.93;6.07;;;16.20;99.90;;;;;;5107604;27;20673;-77
2023/05/27 08:48:01;;;;;;;14.40;5.97;;;16.30;99.90;;;;;;5101174;27;20206;-77
2023/05/27 08:50:35;;;;;;;13.98;6.22;;;16.30;99.90;;;;;;5092601;28;20227;-77
2023/05/27 08:53:04;;;;;;;12.02;5.90;;;16.20;99.90;;;;;;5113086;28;20207;-77
2023/05/27 08:55:33;;;;;;;13.32;6.68;;;16.30;99.90;;;;;;5113188;28;20200;-77
2023/05/27 08:58:04;;;;;;;13.80;6.22;;;16.50;99.90;;;;;;5094148;28;20200;-77
2023/05/27 09:00:35;;;;;;;14.77;6.28;;;16.60;99.90;;;;;;5092962;28;20217;-77
2023/05/27 09:03:16;;;;;;;14.75;6.50;;;16.60;99.90;;;;;;5111273;28;20207;-77
2023/05/27 09:05:44;;;;;;;14.68;5.97;;;16.70;99.90;;;;;;5095592;28;20217;-77
2023/05/27 09:08:11;;;;;;;13.85;6.28;;;16.80;99.90;;;;;;5099169;28;20556;-77
2023/05/27 09:10:39;;;;;;;13.45;5.78;;;16.90;99.90;;;;;;5104182;28;20216;-77
2023/05/27 09:13:08;;;;;;;13.07;6.32;;;16.90;99.90;;;;;;5113998;28;20199;-77
2023/05/27 09:15:36;;;;;;;10.82;6.53;;;16.80;99.90;;;;;;5112216;28;20211;-77
2023/05/27 09:18:06;;;;;;;17.05;6.55;;;16.80;99.90;;;;;;5107242;28;20184;-77
2023/05/27 09:20:33;;;;;;;10.68;5.47;;;16.90;99.90;;;;;;5112058;28;20216;-77
2023/05/27 09:23:02;;;;;;;15.27;5.82;;;17.00;99.90;;;;;;5112625;28;20561;-77
2023/05/27 09:25:30;;;;;;;13.68;5.47;;;17.00;99.90;;;;;;5110102;28;20677;-77
2023/05/27 09:27:58;;;;;;;15.38;5.60;;;17.00;99.90;;;;;;5108325;28;20201;-77
2023/05/27 09:30:27;;;;;;;12.50;5.50;;;17.20;99.90;;;;;;5102952;28;20216;-77
2023/05/27 09:33:02;;;;;;;13.38;5.60;;;17.30;99.90;;;;;;5105113;28;20204;-77
2023/05/27 09:35:29;;;;;;;17.55;6.47;;;17.20;99.90;;;;;;5101349;28;20203;-77
2023/05/27 09:38:06;;;;;;;17.20;6.05;;;17.30;99.90;;;;;;5113139;28;20204;-77
2023/05/27 09:40:37;;;;;;;11.05;5.88;;;17.40;99.90;;;;;;5112280;28;20223;-77
2023/05/27 09:43:05;;;;;;;11.98;5.75;;;17.30;99.90;;;;;;5112174;28;20584;-77
2023/05/27 09:45:59;;;;;;;12.07;4.57;;;17.50;99.90;;;;;;5097949;28;20221;-77
2023/05/27 09:48:33;;;;;;;10.23;4.97;;;17.50;99.90;;;;;;5105447;28;20192;-77
2023/05/27 09:51:01;;;;;;;8.88;4.55;;;17.60;99.90;;;;;;5111983;28;20295;-77
2023/05/27 09:53:29;;;;;;;8.40;5.22;;;17.60;99.90;;;;;;5113649;28;20191;-77
2023/05/27 09:55:58;;;;;;;12.18;5.50;;;17.70;99.90;;;;;;5111960;28;20196;-77
2023/05/27 09:58:26;;;;;;;12.57;5.38;;;17.70;98.60;;;;;;5103150;28;20200;-77
2023/05/27 10:00:56;;;;;;;10.18;4.90;;;17.60;99.70;;;;;;5111301;28;20216;-77
2023/05/27 10:03:25;;;;;;;10.95;4.63;;;17.70;99.80;;;;;;5111905;28;20204;-77
2023/05/27 10:05:52;;;;;;;9.70;4.53;;;17.70;97.60;;;;;;5110703;28;20216;-77
2023/05/27 10:08:20;;;;;;;15.00;4.47;;;17.80;96.90;;;;;;5101396;28;20197;-77
2023/05/27 10:10:47;;;;;;;14.27;5.07;;;17.90;96.20;;;;;;5104938;28;20704;-77
2023/05/27 10:13:17;;;;;;;11.13;3.92;;;17.80;94.50;;;;;;5099035;28;20200;-77
2023/05/27 10:15:49;;;;;;;12.88;5.32;;;18.00;95.00;;;;;;5107450;28;20203;-77
2023/05/27 10:18:26;;;;;;;6.38;4.05;;;18.00;95.00;;;;;;5110479;28;20197;-77
2023/05/27 10:20:54;;;;;;;11.18;4.72;;;18.00;93.90;;;;;;5097264;28;20228;-77
2023/05/27 10:23:25;;;;;;;12.57;4.35;;;18.10;94.10;;;;;;5091302;28;20200;-77
2023/05/27 10:25:55;;;;;;;11.93;4.93;;;18.20;93.90;;;;;;5091924;28;20220;-79
2023/05/27 10:28:31;;;;;;;9.10;4.45;;;18.30;94.00;;;;;;5100229;28;20200;-79
2023/05/27 10:31:05;;;;;;;9.15;4.50;;;18.40;92.90;;;;;;5105461;28;20574;-79
2023/05/27 10:33:36;;;;;;;13.20;5.13;;;18.30;93.00;;;;;;5092026;28;20188;-80
2023/05/27 10:36:12;;;;;;;9.82;4.32;;;18.30;93.00;;;;;;5093697;28;20193;-79
2023/05/27 10:38:43;;;;;;;11.35;5.05;;;18.40;92.90;;;;;;5102719;28;20204;-80
2023/05/27 10:41:22;;;;;;;8.57;4.97;;;18.60;92.30;;;;;;5105586;28;20199;-79
2023/05/27 10:43:58;;;;;;;9.50;4.85;;;18.60;91.40;;;;;;5102464;28;20201;-79
2023/05/27 10:46:26;;;;;;;10.38;3.85;;;18.60;91.40;;;;;;5108502;28;20674;-79
2023/05/27 10:48:55;;;;;;;9.45;4.45;;;18.90;91.90;;;;;;5111095;28;20231;-80
2023/05/27 10:51:32;;;;;;;9.57;4.40;;;19.10;92.90;;;;;;5100032;28;20212;-79
2023/05/27 10:54:04;;;;;;;11.27;4.97;;;19.00;92.60;;;;;;5099322;28;20207;-79
2023/05/27 10:56:31;;;;;;;9.73;4.35;;;19.20;92.20;;;;;;5105158;28;20188;-79
2023/05/27 10:59:01;;;;;;;8.65;4.07;;;19.30;91.30;;;;;;5103885;28;20224;-80
2023/05/27 11:01:32;;;;;;;9.52;4.57;;;19.40;91.00;;;;;;5110542;28;20220;-79
2023/05/27 11:04:01;;;;;;;9.98;4.38;;;19.50;90.50;;;;;;5117621;28;20197;-80
2023/05/27 11:06:29;;;;;;;14.00;5.47;;;19.40;90.40;;;;;;5105983;28;20212;-79
2023/05/27 11:08:56;;;;;;;13.75;5.57;;;19.50;91.00;;;;;;5112658;28;20234;-80
2023/05/27 11:11:24;;;;;;;12.40;4.75;;;19.70;91.50;;;;;;5112101;28;20200;-80
2023/05/27 11:13:53;;;;;;;10.77;4.78;;;19.80;90.60;;;;;;5117298;28;20192;-80
2023/05/27 11:16:20;;;;;;;10.48;4.35;;;19.80;89.20;;;;;;5113281;28;20188;-82
2023/05/27 11:18:58;;;;;;;10.32;4.75;;;20.00;90.20;;;;;;5106754;28;20192;-80
2023/05/27 11:21:45;;;;;;;10.07;3.92;;;20.10;90.50;;;;;;5105147;28;20188;-81
2023/05/27 11:24:24;;;;;;;7.65;3.97;;;20.30;90.20;;;;;;5099128;28;20193;-82
2023/05/27 11:26:51;;;;;;;9.27;4.03;;;20.20;90.30;;;;;;5109425;28;20211;-82
2023/05/27 11:29:19;;;;;;;11.65;4.82;;;20.20;90.20;;;;;;5110425;28;20231;-82
2023/05/27 11:31:48;;;;;;;11.07;5.10;;;20.20;90.70;;;;;;5107139;28;20638;-82
2023/05/27 11:34:18;;;;;;;8.68;4.70;;;20.30;90.60;;;;;;5112037;28;20203;-82
2023/05/27 11:36:51;;;;;;;12.63;4.78;;;20.30;91.90;;;;;;5115582;28;20203;-82
2023/05/27 11:39:18;;;;;;;10.82;4.53;;;20.50;91.40;;;;;;5103820;28;20213;-82
2023/05/27 11:41:50;;;;;;;11.55;5.30;;;20.40;91.40;;;;;;5105229;28;20185;-82
2023/05/27 11:44:19;;;;;;;8.70;4.38;;;20.30;91.40;;;;;;5104439;28;20215;-82
2023/05/27 11:46:52;;;;;;;10.73;4.05;;;20.50;90.70;;;;;;5107307;28;20713;-82
2023/05/27 11:49:20;;;;;;;10.63;4.35;;;20.60;88.90;;;;;;5112882;28;20224;-82
2023/05/27 11:51:51;;;;;;;12.38;4.68;;;20.70;90.10;;;;;;5099282;28;20201;-82
2023/05/27 11:54:20;;;;;;;9.75;4.72;;;20.70;88.00;;;;;;5103367;28;20204;-82
2023/05/27 11:56:49;;;;;;;9.52;4.38;;;20.80;88.10;;;;;;5108783;28;20197;-82
2023/05/27 11:59:16;;;;;;;7.38;3.90;;;20.70;89.30;;;;;;5105480;28;20232;-82
2023/05/27 12:01:45;;;;;;;11.13;4.35;;;20.80;88.30;;;;;;5110128;28;20192;-82
2023/05/27 12:04:12;;;;;;;8.98;4.15;;;21.00;86.10;;;;;;5104836;28;20205;-82
2023/05/27 12:06:41;;;;;;;10.60;4.68;;;21.00;88.40;;;;;;5102358;28;20223;-83
2023/05/27 12:09:10;;;;;;;10.15;4.15;;;21.00;84.20;;;;;;5109443;28;20223;-82
2023/05/27 12:11:38;;;;;;;8.82;4.50;;;21.20;83.60;;;;;;5106926;28;20200;-82
2023/05/27 12:14:06;;;;;;;8.18;4.18;;;21.00;85.00;;;;;;5107662;28;20196;-82
2023/05/27 12:16:44;;;;;;;8.95;4.13;;;21.00;82.40;;;;;;5107619;28;20197;-82
2023/05/27 12:19:12;;;;;;;8.25;3.67;;;21.40;81.30;;;;;;5104963;28;20223;-82
2023/05/27 12:21:40;;;;;;;8.50;4.18;;;21.60;80.40;;;;;;5113123;28;20200;-82
2023/05/27 12:24:07;;;;;;;7.45;3.88;;;21.40;77.20;;;;;;5107408;28;20201;-82
2023/05/27 12:26:37;;;;;;;6.30;3.55;;;21.60;78.70;;;;;;5108571;28;20223;-82
2023/05/27 12:29:04;;;;;;;6.80;4.07;;;21.70;80.00;;;;;;5103197;28;20212;-82
2023/05/27 12:31:32;;;;;;;8.73;4.40;;;21.80;80.20;;;;;;5107589;28;20195;-82
2023/05/27 12:33:59;;;;;;;7.13;3.60;;;22.10;77.60;;;;;;5110780;28;20208;-82
2023/05/27 12:36:27;;;;;;;9.40;3.65;;;21.90;74.00;;;;;;5109895;28;20203;-82
2023/05/27 12:38:54;;;;;;;6.32;4.10;;;21.80;73.60;;;;;;5110950;28;20200;-82
2023/05/27 12:41:22;;;;;;;6.88;3.30;;;21.80;71.50;;;;;;5102885;28;20196;-82
2023/05/27 12:43:51;;;;;;;9.25;4.30;;;21.80;75.40;;;;;;5101343;28;20197;-82
2023/05/27 12:46:19;;;;;;;9.05;4.00;;;21.90;76.60;;;;;;5111986;28;20211;-82
2023/05/27 12:48:46;;;;;;;9.48;4.45;;;22.10;77.40;;;;;;5104183;28;20196;-82
2023/05/27 12:51:14;;;;;;;11.68;4.80;;;22.20;78.20;;;;;;5105160;28;20199;-82
2023/05/27 12:53:41;;;;;;;7.20;4.10;;;21.90;79.60;;;;;;5107695;28;20204;-83
2023/05/27 12:56:11;;;;;;;8.75;4.00;;;22.00;78.20;;;;;;5107915;28;20196;-82
2023/05/27 12:58:39;;;;;;;11.43;4.05;;;22.40;77.90;;;;;;5114991;28;20204;-82
2023/05/27 13:01:08;;;;;;;9.63;4.30;;;22.30;76.20;;;;;;5104840;28;20681;-82